2  °C
Temperature
1  °C
  Dewpoint
93  %
   Humidity
Temp | Dewpoint | Humidity
5  km/h
Wind Speed
3  mph
Wind Speed
3  kts
Wind Speed
200°
South South
West

Wind Speed
Clear
Conditions
Pressure 992.92 (hPa) - 29.32 (in)
Visibility 6.2 (mi) - 10.0 (km)

Current Conditions
EGBJ
Location 6km (3.2mi)
Metar :EGBJ 220850Z 20003KT CAVOK 02/01 Q0993 R27/39////
Fri 22nd January 08:50 am

Airport
https://www.checkwx.com/
  Metar Aviation API Data Provided by https://www.checkwx.com/ CSS/SVG/PHP scripts by weather34.com © 2015-2021